Time;durP1;ratioP1;P1;durP2;ratioP2;P2;SDS_P1;SDS_P2;PMS_P1;PMS_P2;Temp;Humidity;BMP_temperature;BMP_pressure;BME280_temperature;BME280_humidity;BME280_pressure;Samples;Min_cycle;Max_cycle;Signal;HPM_P1;HPM_P2
2022/05/03 00:01:42;;;;;;;6.33;2.53;;;;;;;15.69;66.08;98811.56;5048643;28;20190;-83
2022/05/03 00:04:35;;;;;;;7.67;2.63;;;;;;;15.68;66.68;98814.31;5048667;28;20574;-84
2022/05/03 00:07:30;;;;;;;5.30;2.07;;;;;;;15.62;67.70;98813.00;5050289;28;20542;-84
2022/05/03 00:10:06;;;;;;;3.73;2.03;;;;;;;15.59;67.34;98815.06;5052067;28;20168;-84
2022/05/03 00:12:42;;;;;;;4.73;2.03;;;;;;;15.56;67.96;98815.28;5053158;28;20165;-85
2022/05/03 00:15:09;;;;;;;5.77;2.47;;;;;;;15.53;68.09;98815.53;5051931;28;20302;-85
2022/05/03 00:17:36;;;;;;;4.20;2.27;;;;;;;15.62;68.21;98814.78;5052834;28;20207;-84
2022/05/03 00:20:03;;;;;;;2.87;1.70;;;;;;;15.64;68.33;98808.47;5051836;28;20613;-85
2022/05/03 00:22:32;;;;;;;2.60;1.77;;;;;;;15.61;68.61;98818.41;5051819;28;20213;-84
2022/05/03 00:24:57;;;;;;;3.03;1.80;;;;;;;15.70;68.14;98815.03;5052757;28;20703;-84
2022/05/03 00:27:25;;;;;;;4.33;2.10;;;;;;;15.69;68.48;98811.56;5052663;28;20183;-85
2022/05/03 00:29:56;;;;;;;5.97;2.07;;;;;;;15.71;68.66;98808.81;5051640;28;20634;-85
2022/05/03 00:32:22;;;;;;;3.33;1.53;;;;;;;15.65;68.77;98809.28;5051679;28;20597;-84
2022/05/03 00:34:50;;;;;;;2.60;1.90;;;;;;;15.57;68.78;98807.22;5052780;28;20720;-85
2022/05/03 00:37:16;;;;;;;1.70;1.10;;;;;;;15.54;68.94;98807.47;5052794;28;20179;-84
2022/05/03 00:39:42;;;;;;;4.13;2.27;;;;;;;15.45;69.59;98802.88;5051603;28;20176;-84
2022/05/03 00:42:29;;;;;;;5.83;3.10;;;;;;;15.36;69.99;98809.72;5051555;28;20186;-84
2022/05/03 00:45:24;;;;;;;3.57;2.03;;;;;;;15.25;70.06;98807.03;5053326;28;20159;-84
2022/05/03 00:47:57;;;;;;;3.63;1.93;;;;;;;15.32;69.89;98808.28;5052011;28;20282;-84
2022/05/03 00:50:41;;;;;;;4.77;1.70;;;;;;;15.35;69.82;98808.03;5052384;28;20189;-84
2022/05/03 00:53:18;;;;;;;7.53;2.23;;;;;;;15.21;69.86;98813.53;5052512;28;20255;-84
2022/05/03 00:56:12;;;;;;;4.57;2.30;;;;;;;15.17;69.95;98811.25;5052579;28;20178;-85
2022/05/03 00:59:09;;;;;;;5.20;2.50;;;;;;;15.18;70.09;98803.22;5052513;28;20217;-86
2022/05/03 01:01:35;;;;;;;3.33;1.63;;;;;;;15.24;70.16;98804.53;5026414;28;20200;-85
2022/05/03 01:04:18;;;;;;;4.03;2.10;;;;;;;15.33;70.13;98794.09;5052697;28;20162;-85
2022/05/03 01:06:50;;;;;;;3.77;1.90;;;;;;;15.40;69.89;98807.69;5052335;28;20173;-85
2022/05/03 01:09:23;;;;;;;6.77;1.77;;;;;;;15.42;69.44;98797.00;5052335;28;20233;-85
2022/05/03 01:12:07;;;;;;;3.73;2.00;;;;;;;15.35;69.99;98801.91;5052030;28;20171;-86
2022/05/03 01:14:47;;;;;;;3.97;2.13;;;;;;;15.28;69.85;98800.69;5052140;28;20197;-85
2022/05/03 01:17:45;;;;;;;7.13;2.33;;;;;;;15.28;69.99;98800.69;5050907;28;20193;-86
2022/05/03 01:20:15;;;;;;;5.27;2.40;;;;;;;15.28;70.17;98793.63;5051759;28;20180;-86
2022/05/03 01:23:05;;;;;;;5.30;2.10;;;;;;;15.28;69.63;98796.25;5051744;28;20166;-86
2022/05/03 01:25:53;;;;;;;3.20;1.67;;;;;;;15.36;69.74;98796.50;5052039;28;20174;-85
2022/05/03 01:28:48;;;;;;;4.30;2.27;;;;;;;15.33;70.10;98793.25;5040908;28;20193;-86
2022/05/03 01:31:15;;;;;;;6.77;2.80;;;;;;;15.30;70.37;98782.94;5052138;28;20172;-86
2022/05/03 01:33:45;;;;;;;8.50;2.20;;;;;;;15.36;70.26;98785.94;5051664;28;20662;-86
2022/05/03 01:36:15;;;;;;;5.73;2.33;;;;;;;15.29;69.92;98783.91;5050521;28;20179;-86
2022/05/03 01:38:49;;;;;;;4.40;2.07;;;;;;;15.31;69.99;98780.19;5050515;28;20192;-85
2022/05/03 01:41:28;;;;;;;7.67;2.07;;;;;;;15.29;69.93;98784.75;5051474;28;20178;-85
2022/05/03 01:44:13;;;;;;;5.47;2.73;;;;;;;15.09;70.63;98785.44;5051720;28;20162;-85
2022/05/03 01:46:39;;;;;;;6.07;1.87;;;;;;;15.09;70.44;98788.09;5050474;28;20249;-86
2022/05/03 01:52:18;;;;;;;5.60;2.30;;;;;;;14.89;71.58;98796.66;5051871;28;20176;-85
2022/05/03 01:55:07;;;;;;;4.63;2.17;;;;;;;14.90;72.00;98795.72;5051744;28;20554;-85
2022/05/03 01:57:35;;;;;;;5.23;2.00;;;;;;;14.96;72.11;98800.53;5050331;28;20173;-85
2022/05/03 04:52:08;;;;;;;3.77;2.10;;;;;;;15.07;69.81;98885.00;3936713;28;22215;-84
2022/05/03 04:54:35;;;;;;;4.17;2.20;;;;;;;14.92;70.03;98891.44;5050090;28;20238;-86
2022/05/03 04:57:03;;;;;;;6.73;2.83;;;;;;;14.81;71.07;98890.53;5052169;28;20201;-86
2022/05/03 04:59:28;;;;;;;8.33;2.57;;;;;;;14.76;72.25;98888.22;5051255;28;20169;-86
2022/05/03 05:01:54;;;;;;;5.70;3.07;;;;;;;14.53;73.28;98889.06;5052399;28;20176;-85
2022/05/03 05:04:19;;;;;;;4.40;2.50;;;;;;;14.46;74.52;98890.47;5052080;28;20624;-85
2022/05/03 05:06:44;;;;;;;4.10;2.57;;;;;;;14.37;74.29;98889.34;5052104;28;20651;-86
2022/05/03 05:09:10;;;;;;;4.60;2.13;;;;;;;14.46;73.70;98879.94;5052028;28;20182;-86
2022/05/03 05:11:35;;;;;;;4.90;2.13;;;;;;;14.25;72.99;98882.28;5052049;28;20185;-86
2022/05/03 05:14:01;;;;;;;3.33;1.97;;;;;;;13.93;73.12;98891.63;5052196;28;20689;-86
2022/05/03 05:16:26;;;;;;;5.60;2.97;;;;;;;13.92;73.67;98893.41;5051960;28;20647;-86
2022/05/03 05:18:52;;;;;;;6.20;3.90;;;;;;;13.78;74.17;98898.81;5051910;28;20623;-87
2022/05/03 05:21:17;;;;;;;5.20;1.50;;;;;;;13.63;74.91;98902.47;5052153;28;20173;-86
2022/05/03 05:23:43;;;;;;;7.73;3.20;;;;;;;13.55;76.17;98900.38;5050932;28;20178;-85
2022/05/03 05:26:08;;;;;;;4.47;2.43;;;;;;;13.65;76.52;98897.97;5052054;28;20256;-86
2022/05/03 05:28:34;;;;;;;6.77;2.33;;;;;;;13.73;77.22;98895.63;5051041;28;20696;-85
2022/05/03 05:30:59;;;;;;;4.60;2.57;;;;;;;13.88;77.29;98894.59;5051958;28;20402;-87
2022/05/03 05:33:25;;;;;;;5.37;2.90;;;;;;;14.06;76.56;98890.66;5052132;28;20177;-85
2022/05/03 05:35:51;;;;;;;4.17;1.97;;;;;;;14.04;76.48;98894.34;5050710;28;20241;-85
2022/05/03 05:38:17;;;;;;;5.37;2.10;;;;;;;13.84;75.64;98895.72;5050649;28;20675;-85
2022/05/03 05:40:44;;;;;;;3.77;2.23;;;;;;;13.87;76.12;98898.16;5051576;28;20173;-86
2022/05/03 05:43:09;;;;;;;3.63;1.93;;;;;;;13.98;75.63;98906.16;5051517;28;20180;-86
2022/05/03 05:45:35;;;;;;;2.93;1.90;;;;;;;13.73;75.58;98914.06;5051460;28;20166;-85
2022/05/03 05:48:01;;;;;;;5.80;2.17;;;;;;;13.75;75.91;98919.25;5052012;28;20628;-86
2022/05/03 05:50:27;;;;;;;2.43;1.53;;;;;;;13.78;75.48;98925.16;5050468;28;20651;-85
2022/05/03 05:55:36;;;;;;;4.47;2.20;;;;;;;13.74;74.15;98928.94;5051871;28;20214;-85
2022/05/03 05:58:05;;;;;;;4.17;1.87;;;;;;;13.74;75.33;98928.94;5050335;28;20640;-85
2022/05/03 06:00:32;;;;;;;5.70;2.70;;;;;;;13.76;76.23;98926.19;5051534;28;20190;-86
2022/05/03 06:02:58;;;;;;;4.93;2.83;;;;;;;13.73;76.40;98931.69;5051447;28;20635;-86
2022/05/03 06:05:23;;;;;;;5.20;2.50;;;;;;;13.71;76.49;98926.50;5051292;28;20619;-85
2022/05/03 06:07:49;;;;;;;5.50;2.10;;;;;;;13.64;76.55;98924.41;5050196;28;20273;-85
2022/05/03 06:10:14;;;;;;;4.13;2.00;;;;;;;13.63;77.90;98926.19;5051115;28;20169;-85
2022/05/03 06:12:40;;;;;;;3.27;1.97;;;;;;;13.70;77.52;98932.75;5051572;28;20182;-85
2022/05/03 06:15:06;;;;;;;4.77;2.97;;;;;;;13.63;77.09;98946.41;5050028;28;20208;-85
2022/05/03 06:17:31;;;;;;;3.50;1.90;;;;;;;13.60;76.53;98941.38;5051288;28;20214;-85
2022/05/03 06:19:57;;;;;;;8.63;2.83;;;;;;;13.64;77.14;98938.41;5050015;28;20181;-85
2022/05/03 06:22:22;;;;;;;3.53;2.13;;;;;;;13.77;76.46;98930.50;5049999;28;20180;-85
2022/05/03 06:24:47;;;;;;;4.53;2.03;;;;;;;13.84;76.32;98937.88;5051124;28;20173;-85
2022/05/03 06:27:16;;;;;;;5.63;2.80;;;;;;;13.98;76.28;98937.78;5051139;28;20294;-85
2022/05/03 06:29:42;;;;;;;5.77;2.23;;;;;;;14.00;75.56;98937.66;5049851;28;20234;-85
2022/05/03 06:32:10;;;;;;;4.53;2.03;;;;;;;13.87;75.40;98940.31;5050794;28;20174;-84
2022/05/03 06:34:39;;;;;;;4.40;2.23;;;;;;;13.94;75.32;98935.47;5050944;28;20185;-85
2022/05/03 06:37:05;;;;;;;6.33;2.87;;;;;;;13.92;74.76;98932.94;5049783;28;20188;-84
2022/05/03 06:39:31;;;;;;;3.47;2.17;;;;;;;13.89;74.75;98937.56;5050630;28;20189;-84
2022/05/03 06:41:56;;;;;;;4.87;2.77;;;;;;;13.85;74.08;98933.47;5049696;28;20176;-84
2022/05/03 06:44:22;;;;;;;4.30;2.10;;;;;;;13.85;74.23;98931.69;5050595;28;20178;-84
2022/05/03 06:46:49;;;;;;;3.70;2.17;;;;;;;13.88;74.59;98934.09;5050852;28;20198;-85
2022/05/03 06:49:14;;;;;;;4.40;2.70;;;;;;;13.90;73.98;98939.25;5049626;28;20184;-84
2022/05/03 06:51:40;;;;;;;5.73;3.03;;;;;;;13.71;74.51;98934.41;5050488;28;20181;-84
2022/05/03 06:54:05;;;;;;;3.43;2.20;;;;;;;13.60;75.19;98936.91;5050304;28;20202;-84
2022/05/03 06:56:36;;;;;;;5.10;2.23;;;;;;;13.34;75.70;98917.63;5050444;28;20529;-84
2022/05/03 06:59:06;;;;;;;5.13;2.77;;;;;;;13.47;77.03;98915.00;5050385;28;20607;-86
2022/05/03 07:01:32;;;;;;;3.87;2.27;;;;;;;13.47;77.51;98913.22;5049467;28;20179;-84
2022/05/03 07:03:58;;;;;;;3.93;2.33;;;;;;;13.48;76.90;98906.16;5050326;28;20174;-84
2022/05/03 07:06:23;;;;;;;6.60;2.53;;;;;;;13.53;77.39;98909.31;5050306;28;20176;-84
2022/05/03 07:08:49;;;;;;;7.53;2.93;;;;;;;13.51;78.11;98909.44;5049643;28;20181;-83
2022/05/03 07:11:15;;;;;;;4.03;2.00;;;;;;;13.61;76.82;98912.28;5050225;28;20252;-84
2022/05/03 07:13:40;;;;;;;3.57;1.67;;;;;;;13.49;75.44;98911.31;5050192;28;20181;-85
2022/05/03 07:16:06;;;;;;;2.33;1.50;;;;;;;13.20;74.94;98911.59;5050455;28;20604;-83
2022/05/03 07:24:00;;;;;;;3.90;1.83;;;;;;;13.16;75.71;98921.47;5050924;28;20220;-84
2022/05/03 07:26:26;;;;;;;6.03;2.17;;;;;;;13.36;76.41;98926.25;5050078;28;20179;-84
2022/05/03 07:28:51;;;;;;;3.57;2.10;;;;;;;13.51;76.45;98927.03;5050338;28;20173;-83
2022/05/03 07:31:18;;;;;;;5.67;2.57;;;;;;;13.43;76.16;98927.56;5050010;28;20535;-83
2022/05/03 07:33:44;;;;;;;4.17;2.40;;;;;;;13.34;76.37;98932.56;5050127;28;20196;-83
2022/05/03 07:36:10;;;;;;;7.30;2.93;;;;;;;13.42;76.98;98938.16;5049934;28;20240;-83
2022/05/03 07:38:35;;;;;;;5.47;2.83;;;;;;;13.50;76.98;98933.22;5050170;28;20621;-84
2022/05/03 07:41:02;;;;;;;7.57;2.40;;;;;;;13.47;76.07;98938.69;5050180;28;20259;-84
2022/05/03 07:43:27;;;;;;;3.93;2.17;;;;;;;13.31;77.45;98940.69;5049850;28;20173;-84
2022/05/03 07:45:54;;;;;;;4.57;2.33;;;;;;;13.37;77.25;98943.75;5048865;28;20267;-83
2022/05/03 07:48:20;;;;;;;4.40;2.17;;;;;;;13.33;76.68;98944.06;5050338;28;20172;-84
2022/05/03 07:50:45;;;;;;;3.77;2.07;;;;;;;13.28;76.05;98951.44;5049729;28;20314;-83
2022/05/03 07:53:11;;;;;;;5.63;2.53;;;;;;;13.31;76.39;98957.31;5049774;28;20206;-84
2022/05/03 07:55:36;;;;;;;4.10;2.37;;;;;;;13.39;76.25;98964.72;5048675;28;20244;-84
2022/05/03 07:58:02;;;;;;;3.50;2.40;;;;;;;13.42;75.98;98957.44;5048715;28;20268;-84
2022/05/03 08:00:27;;;;;;;6.40;3.03;;;;;;;13.49;76.69;98957.91;5049896;28;20247;-84
2022/05/03 08:02:53;;;;;;;4.23;2.07;;;;;;;13.49;75.79;98965.78;5049600;28;20244;-84
2022/05/03 08:05:18;;;;;;;4.50;2.37;;;;;;;13.54;76.13;98966.31;5049608;28;20178;-83
2022/05/03 08:07:44;;;;;;;3.80;1.73;;;;;;;13.53;75.79;98972.53;5049583;28;20192;-84
2022/05/03 08:10:10;;;;;;;3.93;2.30;;;;;;;13.38;76.92;98963.88;5049546;28;20184;-83
2022/05/03 08:12:36;;;;;;;3.87;2.20;;;;;;;13.34;76.63;98972.06;5048574;28;20241;-84
2022/05/03 08:15:02;;;;;;;3.37;2.13;;;;;;;13.43;76.78;98967.03;5049455;28;20204;-84
2022/05/03 08:17:28;;;;;;;2.77;1.70;;;;;;;13.47;77.51;98962.41;5049460;28;20190;-84
2022/05/03 08:19:54;;;;;;;4.70;2.50;;;;;;;13.33;77.45;98970.38;5048465;28;20178;-84
2022/05/03 08:22:20;;;;;;;4.27;2.37;;;;;;;13.30;77.27;98965.31;5049397;28;20234;-83
2022/05/03 08:24:45;;;;;;;5.43;2.03;;;;;;;13.31;77.05;98961.75;5048396;28;20180;-84
2022/05/03 08:27:11;;;;;;;5.13;2.33;;;;;;;13.33;77.91;98970.38;5049617;28;20172;-84
2022/05/03 08:29:36;;;;;;;5.97;2.00;;;;;;;13.33;77.90;98970.38;5049655;28;20173;-83
2022/05/03 08:32:03;;;;;;;4.27;2.30;;;;;;;13.26;78.74;98974.38;5052650;28;20187;-83
2022/05/03 08:34:29;;;;;;;3.63;1.67;;;;;;;13.37;79.07;98979.75;5053150;28;20197;-83
2022/05/03 08:42:24;;;;;;;3.07;1.97;;;;;;;13.57;77.49;98977.47;5052554;28;20192;-83
2022/05/03 08:44:49;;;;;;;3.23;1.80;;;;;;;13.63;76.84;98973.59;5052486;28;20173;-83
2022/05/03 08:47:18;;;;;;;3.80;2.07;;;;;;;13.52;76.56;98971.69;5051494;28;20551;-83
2022/05/03 08:50:07;;;;;;;3.93;1.43;;;;;;;13.45;77.77;98980.09;5052362;28;20174;-83
2022/05/03 08:52:55;;;;;;;3.60;1.43;;;;;;;12.85;78.95;98975.25;5051232;28;20288;-84
2022/05/03 08:55:21;;;;;;;3.27;1.80;;;;;;;12.83;80.57;98985.03;5052279;28;20556;-84
2022/05/03 08:57:47;;;;;;;2.83;1.23;;;;;;;12.72;80.25;98984.84;5052187;28;20195;-83
2022/05/03 09:00:14;;;;;;;4.27;2.07;;;;;;;12.75;80.32;98989.06;5052437;28;20250;-83
2022/05/03 09:02:44;;;;;;;2.87;1.33;;;;;;;13.01;80.71;98984.78;5052189;28;20180;-83
2022/05/03 09:05:11;;;;;;;3.07;1.50;;;;;;;13.14;79.92;98985.69;5052426;28;20187;-83
2022/05/03 09:07:37;;;;;;;2.07;1.33;;;;;;;13.25;80.28;98988.47;5052111;28;20171;-83
2022/05/03 09:10:38;;;;;;;2.97;1.47;;;;;;;13.43;79.87;98992.53;5052107;28;20172;-83
2022/05/03 09:13:18;;;;;;;3.70;1.80;;;;;;;13.64;80.41;98991.09;4975191;28;20201;-82
2022/05/03 09:15:44;;;;;;;3.77;2.43;;;;;;;13.72;80.03;98994.06;5045460;28;20667;-83
2022/05/03 09:18:26;;;;;;;2.07;1.17;;;;;;;13.22;79.17;98999.19;5050987;27;20181;-83
2022/05/03 09:23:51;;;;;;;3.20;1.77;;;;;;;12.95;81.23;98996.53;5052463;28;20168;-83
2022/05/03 09:26:28;;;;;;;2.93;1.60;;;;;;;12.72;82.34;98997.16;5052457;28;20168;-83
2022/05/03 09:29:01;;;;;;;4.73;1.57;;;;;;;12.81;84.10;98994.78;5050864;28;20189;-83
2022/05/03 09:31:30;;;;;;;4.17;2.00;;;;;;;12.99;84.45;98984.88;5051731;28;20666;-83
2022/05/03 09:33:56;;;;;;;4.57;2.30;;;;;;;12.86;83.95;98991.88;5050715;28;20264;-83
2022/05/03 09:36:22;;;;;;;4.40;2.30;;;;;;;13.03;84.07;98988.97;5051708;28;20166;-82
2022/05/03 09:38:49;;;;;;;2.67;1.53;;;;;;;12.71;82.79;98992.84;5050633;28;20607;-82
2022/05/03 09:41:16;;;;;;;2.93;1.40;;;;;;;12.94;85.92;98989.59;5050117;28;20556;-83
2022/05/03 09:44:05;;;;;;;3.10;1.60;;;;;;;13.16;84.93;98983.78;5051845;28;20176;-82
2022/05/03 09:46:49;;;;;;;2.20;1.23;;;;;;;13.38;83.38;98981.44;5050642;28;20166;-82
2022/05/03 09:49:17;;;;;;;4.10;1.87;;;;;;;13.29;81.86;98982.03;5051762;28;20192;-83
2022/05/03 09:51:43;;;;;;;2.87;1.80;;;;;;;13.14;81.63;98981.28;5051678;28;20245;-83
2022/05/03 09:54:09;;;;;;;3.50;2.37;;;;;;;13.38;82.31;98978.81;5051210;28;20209;-84
2022/05/03 09:56:37;;;;;;;3.07;1.67;;;;;;;13.29;80.06;98985.53;5050650;28;20181;-83
2022/05/03 09:59:11;;;;;;;2.97;1.50;;;;;;;13.51;80.42;98977.06;5051325;28;20188;-82
2022/05/03 10:01:36;;;;;;;2.27;1.40;;;;;;;13.40;81.55;98992.72;5051322;28;20165;-82
2022/05/03 10:04:06;;;;;;;2.87;1.80;;;;;;;13.35;82.22;98986.91;5051493;28;20232;-83
2022/05/03 10:06:32;;;;;;;3.27;1.60;;;;;;;13.64;82.23;98979.69;5051194;28;20181;-82
2022/05/03 10:08:59;;;;;;;3.83;2.13;;;;;;;13.46;82.76;98979.16;5051419;28;20182;-81
2022/05/03 10:11:26;;;;;;;3.13;1.80;;;;;;;13.24;83.18;98992.03;5051149;28;20185;-82
2022/05/03 10:13:55;;;;;;;3.17;1.73;;;;;;;13.42;83.90;98990.81;5050995;28;20249;-83
2022/05/03 10:21:57;;;;;;;3.10;1.90;;;;;;;13.77;80.72;98984.03;5051294;28;20177;-84
2022/05/03 10:24:24;;;;;;;4.37;2.23;;;;;;;13.83;80.85;98988.91;5049995;27;20195;-83
2022/05/03 10:26:52;;;;;;;2.93;1.60;;;;;;;13.79;79.60;98989.19;5050916;28;20174;-84
2022/05/03 10:29:19;;;;;;;3.67;1.93;;;;;;;13.90;78.94;98994.59;5049925;28;20193;-84
2022/05/03 10:32:00;;;;;;;3.63;1.97;;;;;;;14.08;79.16;98985.41;5050877;28;20184;-84
2022/05/03 10:34:59;;;;;;;2.73;1.47;;;;;;;14.10;78.59;98988.78;5049843;28;20201;-83
2022/05/03 10:37:36;;;;;;;2.97;1.63;;;;;;;13.84;78.12;98993.22;5051079;28;20158;-84
2022/05/03 10:40:09;;;;;;;3.20;1.90;;;;;;;13.87;78.22;98987.72;5051011;28;20158;-84
2022/05/03 10:42:35;;;;;;;4.80;2.00;;;;;;;14.01;78.39;98990.28;5050718;28;20185;-84
2022/05/03 10:45:10;;;;;;;3.97;1.87;;;;;;;14.25;77.74;98978.97;5050627;28;20514;-85
2022/05/03 10:47:44;;;;;;;2.60;1.43;;;;;;;14.25;78.01;98985.09;5050655;28;20165;-85
2022/05/03 10:50:15;;;;;;;3.63;1.63;;;;;;;14.23;77.93;98983.53;5049700;28;20209;-85
2022/05/03 10:52:58;;;;;;;3.97;2.10;;;;;;;14.34;78.10;98986.25;5049692;28;20236;-85
2022/05/03 10:55:25;;;;;;;3.07;1.80;;;;;;;14.03;79.35;98982.25;5049547;28;20251;-86
2022/05/03 10:58:25;;;;;;;3.50;1.60;;;;;;;14.10;78.61;98987.00;5050469;28;20181;-86
2022/05/03 11:01:07;;;;;;;2.80;1.50;;;;;;;14.19;78.21;98990.78;5050950;28;20201;-85
2022/05/03 11:03:35;;;;;;;2.20;1.47;;;;;;;14.32;78.08;98994.28;5049446;28;20166;-85
2022/05/03 11:06:19;;;;;;;4.30;2.00;;;;;;;14.49;77.63;98986.03;5049383;28;20189;-85
2022/05/03 11:08:57;;;;;;;4.20;1.30;;;;;;;14.48;76.43;98992.28;5050281;28;20174;-84
2022/05/03 11:11:38;;;;;;;4.80;2.17;;;;;;;14.39;76.73;98994.69;5050291;28;20173;-86
2022/05/03 11:16:51;;;;;;;2.37;1.30;;;;;;;14.00;78.29;99006.19;5050509;28;20177;-85
2022/05/03 11:19:19;;;;;;;3.63;1.33;;;;;;;14.13;78.67;99007.88;5050173;28;20624;-85
2022/05/03 11:21:46;;;;;;;2.97;1.47;;;;;;;13.92;79.29;98993.53;5050141;28;20191;-85
2022/05/03 11:24:18;;;;;;;2.13;1.30;;;;;;;14.01;78.83;98995.56;5050364;28;20166;-85
2022/05/03 11:26:44;;;;;;;1.93;1.20;;;;;;;14.01;78.21;98990.28;5049154;28;20174;-83
2022/05/03 11:29:12;;;;;;;2.00;1.27;;;;;;;13.73;78.40;98989.63;5049138;28;20192;-83
2022/05/03 11:31:37;;;;;;;2.03;1.10;;;;;;;13.60;78.99;98986.97;5050578;28;20182;-84
2022/05/03 11:34:06;;;;;;;1.87;1.17;;;;;;;13.59;79.88;98987.94;5049906;28;20200;-85
2022/05/03 11:36:32;;;;;;;2.37;1.60;;;;;;;13.70;80.75;98982.78;5050181;28;20182;-85
2022/05/03 11:38:59;;;;;;;4.00;1.30;;;;;;;13.62;80.72;98982.44;5050175;28;20177;-84
2022/05/03 11:41:26;;;;;;;3.13;1.10;;;;;;;13.65;80.58;98982.25;5050460;28;20513;-83
2022/05/03 11:43:53;;;;;;;1.83;1.00;;;;;;;13.86;81.03;98975.50;5050148;28;20252;-85
2022/05/03 11:46:20;;;;;;;3.03;1.33;;;;;;;14.15;81.42;98970.84;5050114;28;20206;-86
2022/05/03 11:48:52;;;;;;;2.03;0.90;;;;;;;14.25;80.20;98966.66;5048833;28;20633;-82
2022/05/03 11:56:47;;;;;;;3.00;1.10;;;;;;;14.88;77.17;98963.03;5049769;28;20273;-85
2022/05/03 11:59:15;;;;;;;2.83;1.23;;;;;;;14.82;76.08;98961.69;5050255;28;20181;-84
2022/05/03 12:01:41;;;;;;;5.13;1.40;;;;;;;14.85;74.75;98957.97;5050221;28;20343;-84
2022/05/03 12:04:08;;;;;;;2.93;1.50;;;;;;;15.24;74.42;98962.97;5050730;28;20171;-85
2022/05/03 12:06:45;;;;;;;2.33;1.20;;;;;;;15.32;73.62;98965.88;5053123;28;20185;-85
2022/05/03 12:09:12;;;;;;;3.17;1.00;;;;;;;15.30;73.31;98963.34;5052188;28;20175;-84
2022/05/03 12:14:36;;;;;;;2.60;1.33;;;;;;;15.22;72.48;98959.59;5033850;28;20218;-84
2022/05/03 12:17:02;;;;;;;3.57;1.60;;;;;;;15.34;72.76;98954.25;5053192;28;20171;-84
2022/05/03 12:19:33;;;;;;;6.60;2.20;;;;;;;15.59;73.38;98952.44;5051994;28;20182;-85
2022/05/03 12:22:12;;;;;;;4.17;2.00;;;;;;;15.72;71.34;98958.47;5053212;28;20161;-85
2022/05/03 12:24:40;;;;;;;4.37;2.10;;;;;;;15.78;69.24;98963.28;5053143;28;20216;-84
2022/05/03 12:27:13;;;;;;;4.30;1.97;;;;;;;15.67;68.90;98960.63;5052799;28;20232;-84
2022/05/03 12:29:46;;;;;;;3.80;2.03;;;;;;;15.50;68.43;98964.53;5053006;28;20187;-84
2022/05/03 12:32:17;;;;;;;2.93;1.47;;;;;;;15.41;67.29;98961.72;5051813;28;20237;-85
2022/05/03 12:35:01;;;;;;;2.30;1.10;;;;;;;15.61;68.15;98961.09;5053210;28;20633;-84
2022/05/03 12:37:27;;;;;;;2.10;1.07;;;;;;;15.78;69.87;98958.81;5052973;28;20168;-83
2022/05/03 12:39:52;;;;;;;2.13;1.10;;;;;;;15.58;68.85;98958.66;5052567;28;20305;-84
2022/05/03 12:42:18;;;;;;;1.60;0.80;;;;;;;15.74;68.37;98959.19;5051637;28;20187;-84
2022/05/03 12:44:48;;;;;;;1.30;0.77;;;;;;;15.71;67.11;98967.34;5051593;28;20263;-83
2022/05/03 12:47:13;;;;;;;0.97;0.70;;;;;;;15.95;67.64;98968.97;5052483;28;20195;-85
2022/05/03 12:49:38;;;;;;;0.60;0.40;;;;;;;16.12;69.75;98962.34;5051514;28;20251;-84
2022/05/03 12:52:04;;;;;;;0.77;0.47;;;;;;;16.25;68.00;98963.06;5051456;28;20170;-84
2022/05/03 12:54:30;;;;;;;1.30;0.70;;;;;;;16.22;67.46;98952.72;5052246;28;20209;-83
2022/05/03 12:59:39;;;;;;;1.50;0.60;;;;;;;16.17;66.20;98956.72;5052899;28;20328;-83
2022/05/03 13:02:05;;;;;;;1.27;0.50;;;;;;;16.04;65.38;98966.56;5051327;28;20648;-84
2022/05/03 13:04:30;;;;;;;1.37;0.50;;;;;;;16.09;66.38;98957.28;5052222;28;20672;-83
2022/05/03 13:07:00;;;;;;;3.60;0.70;;;;;;;16.38;67.06;98958.50;5051209;28;20630;-83
2022/05/03 13:09:26;;;;;;;1.20;0.50;;;;;;;16.45;67.40;98954.44;5052458;28;20181;-83
2022/05/03 13:11:55;;;;;;;0.70;0.40;;;;;;;16.67;66.10;98952.72;5052109;28;20627;-83
2022/05/03 13:14:21;;;;;;;1.67;0.43;;;;;;;16.63;66.53;98948.66;5051460;28;20567;-83
2022/05/03 13:16:48;;;;;;;0.40;0.37;;;;;;;16.52;65.29;98950.38;5051553;28;20174;-83
2022/05/03 13:19:14;;;;;;;0.60;0.20;;;;;;;16.38;63.00;98950.56;5051989;28;20686;-83
2022/05/03 13:21:43;;;;;;;1.77;0.70;;;;;;;16.22;63.68;98959.84;5050996;28;20170;-83
2022/05/03 13:24:09;;;;;;;0.77;0.30;;;;;;;16.30;63.00;98960.09;5052183;28;20178;-82
2022/05/03 13:26:35;;;;;;;1.00;0.30;;;;;;;16.50;60.52;98965.50;5050939;28;20543;-83
2022/05/03 13:29:02;;;;;;;1.03;0.60;;;;;;;16.34;60.38;98961.53;5052100;28;20382;-84
2022/05/03 13:31:29;;;;;;;1.20;0.60;;;;;;;16.36;59.71;98964.88;5052336;28;20181;-82
2022/05/03 13:33:55;;;;;;;0.57;0.30;;;;;;;16.52;62.99;98966.25;5051992;28;20243;-83
2022/05/03 13:41:48;;;;;;;0.60;0.40;;;;;;;16.50;60.81;98965.50;5052241;28;20661;-82
2022/05/03 13:44:13;;;;;;;0.50;0.40;;;;;;;16.54;61.46;98968.75;5051631;28;20161;-82
2022/05/03 13:46:39;;;;;;;0.70;0.40;;;;;;;16.43;61.93;98969.56;5050662;28;20619;-82
2022/05/03 13:49:04;;;;;;;0.47;0.30;;;;;;;16.37;62.36;98971.88;5051547;28;20287;-82
2022/05/03 13:51:30;;;;;;;0.60;0.40;;;;;;;16.35;61.06;98985.19;5050544;28;20201;-82
2022/05/03 13:53:55;;;;;;;0.63;0.30;;;;;;;16.41;60.88;98976.78;5050338;28;20640;-82
2022/05/03 13:56:21;;;;;;;1.13;0.57;;;;;;;16.47;61.12;98983.41;5051439;28;20197;-82
2022/05/03 13:58:47;;;;;;;1.00;0.50;;;;;;;16.54;61.05;98974.88;5050371;28;20646;-82
2022/05/03 14:01:12;;;;;;;4.87;0.50;;;;;;;16.68;60.76;98980.88;5051340;28;20177;-82
2022/05/03 14:03:38;;;;;;;2.33;0.80;;;;;;;16.64;61.72;98984.75;5051281;28;20699;-82
2022/05/03 14:06:03;;;;;;;0.80;0.50;;;;;;;16.75;61.70;98976.78;5050641;28;20240;-82
2022/05/03 14:08:28;;;;;;;2.63;0.60;;;;;;;16.75;61.71;98992.66;5051488;28;20191;-82
2022/05/03 14:10:54;;;;;;;1.40;0.40;;;;;;;16.80;60.44;98982.53;5051179;28;20248;-83
2022/05/03 14:13:19;;;;;;;1.30;0.50;;;;;;;16.78;60.93;98987.13;5051144;28;20640;-82
2022/05/03 14:15:45;;;;;;;1.37;0.50;;;;;;;16.81;60.39;98992.19;5051005;28;20190;-82
2022/05/03 14:18:10;;;;;;;1.13;0.43;;;;;;;16.80;59.96;98986.03;5051068;28;20180;-82
2022/05/03 14:20:36;;;;;;;1.00;0.60;;;;;;;16.86;60.24;98990.84;5051041;28;20176;-82
2022/05/03 14:23:02;;;;;;;1.07;0.50;;;;;;;16.67;60.07;98992.44;5051002;28;20238;-82
2022/05/03 14:25:27;;;;;;;0.80;0.47;;;;;;;16.77;59.95;99002.16;5051236;28;20173;-82
2022/05/03 14:27:53;;;;;;;2.00;0.73;;;;;;;16.84;59.18;98994.59;5050839;28;20693;-82
2022/05/03 14:30:18;;;;;;;1.50;0.40;;;;;;;16.93;58.53;98996.47;5050893;28;20204;-82
2022/05/03 14:32:47;;;;;;;1.27;0.73;;;;;;;16.72;57.21;98988.44;5051084;28;20616;-82
2022/05/03 14:35:12;;;;;;;0.87;0.60;;;;;;;16.75;58.60;98997.94;5049794;28;20293;-82
2022/05/03 14:37:38;;;;;;;1.03;0.43;;;;;;;16.82;57.87;98989.44;5050750;28;20205;-81
2022/05/03 14:40:05;;;;;;;0.60;0.37;;;;;;;16.94;58.45;98990.22;5050930;28;20181;-82
2022/05/03 14:42:31;;;;;;;0.70;0.40;;;;;;;16.82;56.51;98992.06;5051297;28;20349;-82
2022/05/03 14:44:56;;;;;;;1.10;0.73;;;;;;;17.00;57.58;98989.75;5050635;28;20165;-82
2022/05/03 14:47:22;;;;;;;2.03;0.97;;;;;;;16.99;57.07;98985.41;5050599;28;20258;-82
2022/05/03 14:49:48;;;;;;;4.20;0.90;;;;;;;17.12;58.29;98988.72;5050822;28;20170;-82
2022/05/03 14:52:15;;;;;;;1.93;0.70;;;;;;;17.27;57.15;98992.75;5049472;28;20607;-82
2022/05/03 14:54:42;;;;;;;1.80;1.00;;;;;;;17.34;55.70;98993.13;5050433;28;20201;-82
2022/05/03 15:05:27;;;;;;;6.37;1.60;;;;;;;17.32;54.49;98998.53;5050941;28;20205;-82
2022/05/03 15:07:55;;;;;;;1.53;0.93;;;;;;;17.42;55.30;98994.19;5050588;28;20583;-82
2022/05/03 15:10:21;;;;;;;1.13;0.43;;;;;;;17.39;54.70;98989.13;5050266;28;20170;-82
2022/05/03 15:12:47;;;;;;;1.33;0.70;;;;;;;17.32;55.48;98990.56;5050295;28;20185;-82
2022/05/03 15:15:17;;;;;;;2.90;0.73;;;;;;;17.21;54.65;98985.34;5050502;28;20728;-82
2022/05/03 15:17:47;;;;;;;1.03;0.67;;;;;;;17.18;54.22;98983.78;5050475;28;20174;-82
2022/05/03 15:20:15;;;;;;;0.87;0.40;;;;;;;17.27;54.97;98979.53;5050222;28;20209;-82
2022/05/03 15:25:25;;;;;;;1.00;0.40;;;;;;;17.40;59.27;98980.19;5050920;28;20219;-83
2022/05/03 15:27:51;;;;;;;0.87;0.43;;;;;;;17.19;59.04;98979.31;5050361;28;20182;-83
2022/05/03 15:30:16;;;;;;;3.23;1.23;;;;;;;17.13;58.79;98982.47;5049091;28;20188;-82
2022/05/03 15:32:42;;;;;;;3.40;0.60;;;;;;;17.14;58.75;98981.50;5050255;28;20181;-83